Time;durP1;ratioP1;P1;durP2;ratioP2;P2;SDS_P1;SDS_P2;PMS_P1;PMS_P2;Temp;Humidity;BMP_temperature;BMP_pressure;BME280_temperature;BME280_humidity;BME280_pressure;Samples;Min_cycle;Max_cycle;Signal;HPM_P1;HPM_P2
2022/01/07 00:00:16;;;;;;;19.13;4.60;;;23.40;99.90;;;;;;5058739;28;20037;-62
2022/01/07 00:02:52;;;;;;;22.60;5.05;;;23.40;99.90;;;;;;5068376;28;20499;-64
2022/01/07 00:05:22;;;;;;;18.35;3.97;;;23.50;99.90;;;;;;5064459;28;20477;-65
2022/01/07 00:07:49;;;;;;;22.35;4.38;;;23.60;99.90;;;;;;5051015;28;20044;-64
2022/01/07 00:10:18;;;;;;;22.10;5.00;;;23.70;99.90;;;;;;5074211;28;20041;-64
2022/01/07 00:12:46;;;;;;;19.23;4.18;;;23.90;99.90;;;;;;5070903;28;20016;-64
2022/01/07 00:15:13;;;;;;;29.25;6.13;;;23.80;99.90;;;;;;5069927;28;20381;-64
2022/01/07 00:17:40;;;;;;;24.23;5.63;;;23.80;99.90;;;;;;5069059;28;20389;-64
2022/01/07 00:20:09;;;;;;;32.22;5.18;;;23.90;99.90;;;;;;5055218;28;20060;-64
2022/01/07 00:22:38;;;;;;;31.80;5.65;;;23.90;99.90;;;;;;5071162;28;20469;-64
2022/01/07 00:25:07;;;;;;;21.83;5.25;;;24.00;99.90;;;;;;5073484;28;20043;-64
2022/01/07 00:27:35;;;;;;;31.13;6.75;;;24.10;99.90;;;;;;5079136;28;20028;-64
2022/01/07 00:30:03;;;;;;;32.20;5.65;;;24.10;99.90;;;;;;5073445;28;20041;-64
2022/01/07 00:32:31;;;;;;;32.17;6.68;;;24.00;99.90;;;;;;5058581;28;20025;-65
2022/01/07 00:34:58;;;;;;;26.98;4.93;;;24.10;99.90;;;;;;5068666;28;20051;-64
2022/01/07 00:37:25;;;;;;;33.80;6.30;;;24.00;99.90;;;;;;5076507;28;20389;-64
2022/01/07 00:39:53;;;;;;;34.10;5.72;;;24.00;99.90;;;;;;5072276;28;20021;-64
2022/01/07 00:42:20;;;;;;;30.70;5.20;;;24.00;99.90;;;;;;5068804;28;20025;-63
2022/01/07 00:44:47;;;;;;;23.80;4.47;;;23.90;99.90;;;;;;5053941;28;20036;-63
2022/01/07 00:47:16;;;;;;;35.33;4.80;;;24.00;99.90;;;;;;5061383;28;20040;-64
2022/01/07 00:49:45;;;;;;;31.95;6.50;;;24.00;99.90;;;;;;5065608;28;20094;-64
2022/01/07 00:52:12;;;;;;;30.05;5.22;;;24.00;99.90;;;;;;5055758;28;20044;-64
2022/01/07 00:54:39;;;;;;;22.27;5.70;;;24.00;99.90;;;;;;5073251;28;20020;-65
2022/01/07 00:57:06;;;;;;;33.33;6.30;;;24.00;99.90;;;;;;5070385;28;20491;-65
2022/01/07 00:59:34;;;;;;;30.52;5.70;;;24.00;99.90;;;;;;5069791;28;20055;-65
2022/01/07 01:02:02;;;;;;;31.60;5.55;;;24.00;99.90;;;;;;5058428;28;20029;-64
2022/01/07 01:04:32;;;;;;;26.23;5.95;;;24.00;99.90;;;;;;5063378;28;20488;-65
2022/01/07 01:06:59;;;;;;;28.90;5.32;;;24.00;99.90;;;;;;5070682;28;20058;-66
2022/01/07 01:09:26;;;;;;;32.80;6.43;;;24.00;99.90;;;;;;5054528;28;20041;-66
2022/01/07 01:11:54;;;;;;;35.33;5.50;;;24.00;99.90;;;;;;5062817;28;20163;-66
2022/01/07 01:14:21;;;;;;;25.73;6.03;;;24.00;99.90;;;;;;5072819;28;20044;-67
2022/01/07 01:16:48;;;;;;;29.52;5.53;;;24.10;99.90;;;;;;5071486;28;20029;-66
2022/01/07 01:19:16;;;;;;;24.30;5.35;;;24.20;99.90;;;;;;5058808;28;20025;-66
2022/01/07 01:21:43;;;;;;;31.33;6.45;;;24.20;99.90;;;;;;5060926;28;20032;-65
2022/01/07 01:24:10;;;;;;;30.98;5.90;;;24.30;99.90;;;;;;5067266;28;20086;-66
2022/01/07 01:26:37;;;;;;;31.48;6.43;;;24.40;99.90;;;;;;5072401;28;20024;-65
2022/01/07 01:29:05;;;;;;;28.67;5.43;;;24.50;99.90;;;;;;5071288;28;20032;-65
2022/01/07 01:31:35;;;;;;;27.33;5.32;;;24.50;99.90;;;;;;5066676;28;20047;-64
2022/01/07 01:34:04;;;;;;;29.85;6.35;;;24.50;99.90;;;;;;5068969;28;20106;-65
2022/01/07 01:36:32;;;;;;;31.10;6.43;;;24.60;99.90;;;;;;5070592;28;20044;-65
2022/01/07 01:39:00;;;;;;;26.65;5.20;;;24.60;99.90;;;;;;5069462;28;20024;-64
2022/01/07 01:41:28;;;;;;;23.52;5.57;;;24.60;99.90;;;;;;5068292;28;20150;-64
2022/01/07 01:43:56;;;;;;;29.80;5.68;;;24.60;99.90;;;;;;5058147;28;20020;-64
2022/01/07 01:46:24;;;;;;;27.83;5.88;;;24.50;99.90;;;;;;5058040;28;20052;-65
2022/01/07 01:48:51;;;;;;;27.10;5.18;;;24.50;99.90;;;;;;5066901;28;20078;-64
2022/01/07 01:51:19;;;;;;;26.13;6.07;;;24.50;99.90;;;;;;5064105;28;20051;-64
2022/01/07 01:53:46;;;;;;;28.58;6.03;;;24.50;99.90;;;;;;5068560;28;20032;-65
2022/01/07 01:56:14;;;;;;;28.17;5.40;;;24.70;99.90;;;;;;5068983;28;20392;-64
2022/01/07 01:58:41;;;;;;;30.35;5.53;;;24.80;99.90;;;;;;5064996;28;20059;-65
2022/01/07 02:01:10;;;;;;;27.27;6.07;;;24.90;99.90;;;;;;5059210;28;20049;-64
2022/01/07 02:03:38;;;;;;;27.40;5.88;;;25.00;99.90;;;;;;5069986;28;20114;-64
2022/01/07 02:06:05;;;;;;;34.03;6.22;;;25.10;99.90;;;;;;5069800;28;20094;-65
2022/01/07 02:08:36;;;;;;;32.28;5.38;;;25.20;99.90;;;;;;5064582;28;20032;-65
2022/01/07 02:11:04;;;;;;;24.33;5.10;;;25.40;99.90;;;;;;5066972;28;20024;-65
2022/01/07 02:13:32;;;;;;;22.17;4.85;;;25.40;99.90;;;;;;5066991;28;20025;-64
2022/01/07 02:15:59;;;;;;;24.13;4.53;;;25.30;99.90;;;;;;5070481;28;20025;-65
2022/01/07 02:18:27;;;;;;;28.92;5.25;;;25.30;99.90;;;;;;5070213;28;20522;-65
2022/01/07 02:20:54;;;;;;;25.30;4.95;;;25.30;99.90;;;;;;5067038;28;20036;-65
2022/01/07 02:23:22;;;;;;;25.00;5.75;;;25.20;99.90;;;;;;5066722;28;20024;-64
2022/01/07 02:25:50;;;;;;;23.38;5.15;;;25.20;99.90;;;;;;5070686;28;20028;-65
2022/01/07 02:28:18;;;;;;;28.25;4.88;;;25.00;99.90;;;;;;5067535;28;20115;-65
2022/01/07 02:30:45;;;;;;;27.38;5.18;;;25.00;99.90;;;;;;5053364;28;20021;-66
2022/01/07 02:33:12;;;;;;;23.27;5.05;;;25.00;99.90;;;;;;5069604;28;20021;-64
2022/01/07 02:35:45;;;;;;;32.67;5.13;;;25.00;99.90;;;;;;5068544;28;20441;-64
2022/01/07 02:38:16;;;;;;;30.45;5.03;;;25.00;99.90;;;;;;5067946;28;20024;-63
2022/01/07 02:40:44;;;;;;;37.42;6.78;;;24.90;99.90;;;;;;5065065;28;20041;-63
2022/01/07 02:43:11;;;;;;;23.90;5.50;;;24.90;99.90;;;;;;5069643;28;20519;-67
2022/01/07 02:45:39;;;;;;;22.40;5.13;;;24.90;99.90;;;;;;5071363;28;20025;-65
2022/01/07 02:48:06;;;;;;;23.70;4.85;;;25.10;99.90;;;;;;5069463;28;20024;-65
2022/01/07 02:50:40;;;;;;;23.20;4.65;;;25.40;99.90;;;;;;5061910;28;20029;-64
2022/01/07 02:53:09;;;;;;;23.65;5.18;;;25.40;99.90;;;;;;5051786;28;20057;-65
2022/01/07 02:55:37;;;;;;;24.25;5.53;;;25.40;99.90;;;;;;5067389;28;20566;-66
2022/01/07 02:58:04;;;;;;;27.35;6.30;;;25.40;99.90;;;;;;5065707;28;20024;-65
2022/01/07 03:00:32;;;;;;;21.13;5.28;;;25.30;99.90;;;;;;5068078;28;20393;-65
2022/01/07 03:03:01;;;;;;;28.33;5.38;;;25.40;99.90;;;;;;5061727;28;20533;-65
2022/01/07 03:05:28;;;;;;;25.35;4.93;;;25.30;99.90;;;;;;5065415;28;20032;-65
2022/01/07 03:07:56;;;;;;;35.00;6.18;;;25.20;99.90;;;;;;5068723;28;20124;-66
2022/01/07 03:10:26;;;;;;;30.52;6.38;;;25.20;99.90;;;;;;5071653;28;20032;-66
2022/01/07 03:12:59;;;;;;;26.25;5.05;;;25.10;99.90;;;;;;5069305;28;20021;-66
2022/01/07 03:15:26;;;;;;;34.05;5.90;;;25.30;99.90;;;;;;5067737;28;20406;-65
2022/01/07 03:17:54;;;;;;;36.60;6.80;;;25.40;99.90;;;;;;5063157;28;20103;-65
2022/01/07 03:20:22;;;;;;;27.60;5.65;;;25.40;99.90;;;;;;5073879;28;20025;-65
2022/01/07 03:22:50;;;;;;;24.85;5.45;;;25.60;99.90;;;;;;5072082;28;20020;-65
2022/01/07 03:25:18;;;;;;;29.45;5.43;;;25.80;99.90;;;;;;5060028;28;20025;-65
2022/01/07 03:27:46;;;;;;;27.13;5.30;;;25.80;99.90;;;;;;5072671;28;20029;-66
2022/01/07 03:30:16;;;;;;;29.42;6.18;;;26.00;99.90;;;;;;5070469;28;20508;-67
2022/01/07 03:32:43;;;;;;;30.70;5.82;;;26.10;99.90;;;;;;5071866;28;20016;-66
2022/01/07 03:35:13;;;;;;;29.83;5.50;;;26.10;99.90;;;;;;5061627;28;20047;-66
2022/01/07 03:37:41;;;;;;;30.65;5.47;;;26.40;99.90;;;;;;5060467;28;20024;-66
2022/01/07 03:40:11;;;;;;;27.00;4.43;;;26.00;99.90;;;;;;5074739;28;20103;-66
2022/01/07 03:42:38;;;;;;;25.63;4.68;;;26.00;99.90;;;;;;5067890;28;20057;-65
2022/01/07 03:45:07;;;;;;;22.98;4.70;;;26.10;99.90;;;;;;5072641;28;20067;-66
2022/01/07 03:47:34;;;;;;;28.63;5.68;;;26.00;99.90;;;;;;5070356;28;20025;-65
2022/01/07 03:50:03;;;;;;;30.25;5.43;;;26.00;99.90;;;;;;5073546;28;20025;-67
2022/01/07 03:52:30;;;;;;;25.27;4.75;;;25.90;99.90;;;;;;5068413;28;20024;-64
2022/01/07 03:54:57;;;;;;;26.27;5.65;;;26.30;99.90;;;;;;5068055;28;20507;-67
2022/01/07 03:57:25;;;;;;;22.35;4.97;;;26.40;99.90;;;;;;5073092;28;20033;-66
2022/01/07 03:59:52;;;;;;;25.25;5.35;;;26.50;99.90;;;;;;5071325;28;20365;-66
2022/01/07 04:02:20;;;;;;;23.17;4.95;;;26.20;99.90;;;;;;5069822;28;20134;-65
2022/01/07 04:04:48;;;;;;;22.70;5.28;;;26.10;99.90;;;;;;5073061;28;20028;-65
2022/01/07 04:07:15;;;;;;;24.15;5.90;;;26.10;99.90;;;;;;5070855;28;20044;-65
2022/01/07 04:09:42;;;;;;;23.10;4.85;;;25.90;99.90;;;;;;5073173;28;20036;-66
2022/01/07 04:12:10;;;;;;;21.42;4.40;;;25.80;99.90;;;;;;5069203;28;20024;-65
2022/01/07 04:14:37;;;;;;;22.23;4.75;;;25.60;99.90;;;;;;5071462;28;20051;-65
2022/01/07 04:17:06;;;;;;;24.38;4.80;;;25.50;99.90;;;;;;5070747;28;20070;-65
2022/01/07 04:19:33;;;;;;;34.03;6.80;;;25.70;99.90;;;;;;5072073;28;20485;-65
2022/01/07 04:22:01;;;;;;;25.05;6.32;;;25.70;99.90;;;;;;5067195;28;20139;-65
2022/01/07 04:24:28;;;;;;;26.90;5.03;;;25.80;99.90;;;;;;5070347;28;20032;-65
2022/01/07 04:26:57;;;;;;;21.77;5.65;;;26.00;99.90;;;;;;5067089;28;20025;-65
2022/01/07 04:29:24;;;;;;;28.23;5.35;;;26.10;99.90;;;;;;5069840;28;20024;-65
2022/01/07 04:31:51;;;;;;;18.42;4.50;;;26.10;99.90;;;;;;5068530;28;20024;-65
2022/01/07 04:34:18;;;;;;;30.77;5.47;;;26.00;99.90;;;;;;5072726;28;20481;-65
2022/01/07 04:36:46;;;;;;;24.67;5.28;;;25.90;99.90;;;;;;5067085;28;20033;-65
2022/01/07 04:39:13;;;;;;;22.42;4.97;;;25.80;99.90;;;;;;5066838;28;20021;-66
2022/01/07 04:41:40;;;;;;;31.83;5.60;;;25.70;99.90;;;;;;5075661;28;20081;-65
2022/01/07 04:44:07;;;;;;;30.92;6.32;;;25.70;99.90;;;;;;5072668;28;20087;-65
2022/01/07 04:46:35;;;;;;;33.00;6.15;;;25.60;99.90;;;;;;5072774;28;20025;-65
2022/01/07 04:49:03;;;;;;;28.50;7.13;;;25.50;99.90;;;;;;5069294;28;20025;-65
2022/01/07 04:51:30;;;;;;;26.10;5.47;;;25.60;99.90;;;;;;5065930;28;20051;-65
2022/01/07 04:54:00;;;;;;;32.05;6.05;;;25.50;99.90;;;;;;5069625;28;20421;-65
2022/01/07 04:56:27;;;;;;;24.77;5.03;;;25.50;99.90;;;;;;5065296;28;20127;-66
2022/01/07 04:58:55;;;;;;;25.27;5.28;;;25.50;99.90;;;;;;5063887;28;20096;-65
2022/01/07 05:01:22;;;;;;;25.52;5.03;;;25.50;99.90;;;;;;5071411;28;20039;-65
2022/01/07 05:03:49;;;;;;;34.72;6.10;;;25.60;99.90;;;;;;5066026;28;20032;-65
2022/01/07 05:06:44;;;;;;;28.77;5.60;;;25.40;99.90;;;;;;5069140;28;20052;-65
2022/01/07 05:09:06;;;;;;;33.53;6.00;;;25.40;99.90;;;;;;5069754;28;20112;-65
2022/01/07 05:11:33;;;;;;;27.95;6.25;;;25.40;99.90;;;;;;5070168;28;20086;-65
2022/01/07 05:14:00;;;;;;;28.30;6.15;;;25.40;99.90;;;;;;5071327;28;20032;-64
2022/01/07 05:16:28;;;;;;;30.35;6.50;;;25.20;99.90;;;;;;5061243;28;20116;-65
2022/01/07 05:18:57;;;;;;;30.85;6.05;;;25.20;99.90;;;;;;5063165;28;20546;-65
2022/01/07 05:21:25;;;;;;;28.48;6.88;;;25.20;99.90;;;;;;5047914;28;20032;-66
2022/01/07 05:23:52;;;;;;;29.90;6.60;;;25.30;99.90;;;;;;5065276;28;20100;-66
2022/01/07 05:26:20;;;;;;;37.53;6.70;;;25.30;99.90;;;;;;5072264;28;20468;-66
2022/01/07 05:28:47;;;;;;;31.67;6.78;;;25.20;99.90;;;;;;5068947;28;20089;-66
2022/01/07 05:31:16;;;;;;;30.95;6.10;;;25.20;99.90;;;;;;5045697;28;20045;-65
2022/01/07 05:33:43;;;;;;;32.10;6.25;;;25.20;99.90;;;;;;5063958;28;20025;-66
2022/01/07 05:36:10;;;;;;;31.23;7.35;;;25.20;99.90;;;;;;5063235;28;20055;-65
2022/01/07 05:38:38;;;;;;;29.05;7.40;;;25.30;99.90;;;;;;5064068;28;20504;-66
2022/01/07 05:41:05;;;;;;;32.50;5.93;;;25.50;99.90;;;;;;5063451;28;20031;-66
2022/01/07 05:43:32;;;;;;;29.55;5.43;;;25.40;99.90;;;;;;5066265;28;20028;-66
2022/01/07 05:46:01;;;;;;;27.30;6.88;;;25.40;99.90;;;;;;5065958;28;20020;-66
2022/01/07 05:48:32;;;;;;;34.38;7.28;;;25.20;99.90;;;;;;5066086;28;20036;-65
2022/01/07 05:50:59;;;;;;;36.45;6.55;;;25.10;99.90;;;;;;5065517;28;20028;-66
2022/01/07 05:53:27;;;;;;;32.88;6.32;;;25.10;99.90;;;;;;5057744;28;20082;-65
2022/01/07 05:55:57;;;;;;;29.50;5.82;;;25.00;99.90;;;;;;5071207;28;20024;-65
2022/01/07 05:58:24;;;;;;;29.65;6.47;;;24.90;99.90;;;;;;5070482;28;20380;-66
2022/01/07 06:00:51;;;;;;;33.10;7.13;;;24.90;99.90;;;;;;5069957;28;20099;-65
2022/01/07 06:03:19;;;;;;;30.27;6.30;;;24.90;99.90;;;;;;5069391;28;20086;-66
2022/01/07 06:05:46;;;;;;;26.98;6.10;;;24.80;99.90;;;;;;5063179;28;20073;-66
2022/01/07 06:08:14;;;;;;;30.00;6.85;;;24.80;99.90;;;;;;5062770;28;20035;-65
2022/01/07 06:10:41;;;;;;;31.75;7.22;;;24.80;99.90;;;;;;5061328;28;20033;-66
2022/01/07 06:13:08;;;;;;;29.70;6.93;;;24.80;99.90;;;;;;5065317;28;20032;-65
2022/01/07 06:15:36;;;;;;;30.88;7.53;;;24.70;99.90;;;;;;5062849;28;20017;-65
2022/01/07 06:18:09;;;;;;;30.10;7.10;;;24.70;99.90;;;;;;5071206;28;20028;-65
2022/01/07 06:20:36;;;;;;;36.53;8.07;;;24.70;99.90;;;;;;5071466;28;20500;-65
2022/01/07 06:23:03;;;;;;;32.45;5.85;;;24.70;99.90;;;;;;5043475;28;20044;-65
2022/01/07 06:25:31;;;;;;;30.92;6.85;;;24.70;99.90;;;;;;5055134;28;20044;-65
2022/01/07 06:27:59;;;;;;;33.72;7.55;;;24.80;99.90;;;;;;5061744;28;20111;-66
2022/01/07 06:30:30;;;;;;;36.63;6.90;;;24.80;99.90;;;;;;5070266;28;20036;-67
2022/01/07 06:32:57;;;;;;;41.03;7.43;;;24.90;99.90;;;;;;5068207;28;20020;-66
2022/01/07 06:35:24;;;;;;;24.23;5.85;;;24.90;99.90;;;;;;5071724;28;20433;-66
2022/01/07 06:37:52;;;;;;;32.72;7.13;;;24.90;99.90;;;;;;5067391;28;20040;-67
2022/01/07 06:40:19;;;;;;;27.75;6.05;;;24.90;99.90;;;;;;5069561;28;20492;-66
2022/01/07 06:42:47;;;;;;;28.17;6.90;;;25.10;99.90;;;;;;5054074;28;20101;-67
2022/01/07 06:45:14;;;;;;;29.40;6.72;;;24.90;99.90;;;;;;5058257;28;20029;-67
2022/01/07 06:47:44;;;;;;;27.25;6.32;;;24.90;99.90;;;;;;5067563;28;20036;-67
2022/01/07 06:50:14;;;;;;;29.42;6.97;;;24.90;99.90;;;;;;5075535;28;20048;-67
2022/01/07 06:52:44;;;;;;;36.58;6.05;;;24.70;99.90;;;;;;5072642;28;20028;-66
2022/01/07 06:55:11;;;;;;;27.05;6.90;;;24.70;99.90;;;;;;5061077;28;20074;-67
2022/01/07 06:57:41;;;;;;;29.42;7.13;;;24.90;99.90;;;;;;5047602;28;20017;-67
2022/01/07 07:00:13;;;;;;;30.70;7.55;;;24.70;99.90;;;;;;5074066;28;20040;-67
2022/01/07 07:02:44;;;;;;;29.80;7.10;;;24.80;99.90;;;;;;5068229;28;20021;-67
2022/01/07 07:05:12;;;;;;;36.90;7.30;;;24.90;99.90;;;;;;5071083;28;20037;-67
2022/01/07 07:07:39;;;;;;;25.70;5.85;;;24.90;99.90;;;;;;5071147;28;20126;-64
2022/01/07 07:10:10;;;;;;;35.13;7.00;;;24.90;99.90;;;;;;5065891;28;20028;-64
2022/01/07 07:12:38;;;;;;;34.33;7.25;;;24.90;99.90;;;;;;5075491;28;20035;-64
2022/01/07 07:15:05;;;;;;;37.80;6.80;;;24.80;99.90;;;;;;5069454;28;20470;-65
2022/01/07 07:17:33;;;;;;;34.83;6.55;;;24.80;99.90;;;;;;5069110;28;20063;-65
2022/01/07 07:20:02;;;;;;;27.23;6.03;;;24.80;99.90;;;;;;5059429;28;20439;-67
2022/01/07 07:22:30;;;;;;;29.23;6.45;;;24.80;99.90;;;;;;5073677;28;20539;-65
2022/01/07 07:24:58;;;;;;;38.17;7.85;;;24.70;99.90;;;;;;5074093;28;20506;-65
2022/01/07 07:27:25;;;;;;;31.13;6.70;;;24.70;99.90;;;;;;5074096;28;20033;-65
2022/01/07 07:29:52;;;;;;;32.63;6.10;;;24.80;99.90;;;;;;5074417;28;20024;-65
2022/01/07 07:32:25;;;;;;;27.67;6.15;;;24.80;99.90;;;;;;5063097;28;20063;-66
2022/01/07 07:37:39;;;;;;;27.17;6.63;;;24.60;99.90;;;;;;5067537;28;20044;-65
2022/01/07 07:40:07;;;;;;;31.80;14.70;;;24.50;99.90;;;;;;5045566;28;20457;-65
2022/01/07 07:42:34;;;;;;;47.35;17.98;;;24.50;99.90;;;;;;5069204;28;20362;-66
2022/01/07 07:45:02;;;;;;;48.28;16.55;;;24.40;99.90;;;;;;5069586;28;20535;-65
2022/01/07 07:47:30;;;;;;;30.70;10.05;;;24.40;99.90;;;;;;5065463;28;20035;-66
2022/01/07 07:49:57;;;;;;;36.40;8.00;;;24.30;99.90;;;;;;5073828;28;20037;-65
2022/01/07 07:52:24;;;;;;;29.40;8.07;;;24.40;99.90;;;;;;5074583;28;20039;-65
2022/01/07 07:54:52;;;;;;;27.80;7.30;;;24.40;99.90;;;;;;5072661;28;20029;-66
2022/01/07 07:57:20;;;;;;;34.10;7.53;;;24.30;99.90;;;;;;5066869;28;20063;-66
2022/01/07 07:59:49;;;;;;;24.30;6.30;;;24.30;99.90;;;;;;5065176;28;20094;-65
2022/01/07 08:02:16;;;;;;;30.15;6.78;;;24.30;99.90;;;;;;5069430;28;20036;-65
2022/01/07 08:04:44;;;;;;;35.80;6.38;;;24.20;99.90;;;;;;5067845;28;20500;-65
2022/01/07 08:07:16;;;;;;;32.70;6.82;;;24.20;99.90;;;;;;5064557;28;20493;-65
2022/01/07 08:09:44;;;;;;;33.60;7.05;;;24.10;99.90;;;;;;5073827;28;20077;-65
2022/01/07 08:12:21;;;;;;;38.60;8.02;;;24.10;99.90;;;;;;5059882;28;20521;-66
2022/01/07 08:17:37;;;;;;;33.35;7.55;;;24.00;99.90;;;;;;5064425;28;20067;-65
2022/01/07 08:20:05;;;;;;;35.53;6.80;;;24.00;99.90;;;;;;5071288;28;20043;-65
2022/01/07 08:22:33;;;;;;;35.22;7.35;;;23.90;99.90;;;;;;5072426;28;20443;-65
2022/01/07 08:25:00;;;;;;;34.10;6.35;;;23.90;99.90;;;;;;5073181;28;20112;-65
2022/01/07 08:27:27;;;;;;;33.83;8.43;;;23.90;99.90;;;;;;5060071;28;20040;-65
2022/01/07 08:29:55;;;;;;;36.25;7.85;;;23.90;99.90;;;;;;5070393;28;20120;-65
2022/01/07 08:35:08;;;;;;;28.25;6.47;;;23.80;99.90;;;;;;5071364;28;20051;-66
2022/01/07 08:37:35;;;;;;;33.75;6.40;;;23.80;99.90;;;;;;5070959;28;20505;-65
2022/01/07 08:40:04;;;;;;;30.33;6.22;;;23.80;99.90;;;;;;5066171;28;20078;-65
2022/01/07 08:42:33;;;;;;;31.67;6.35;;;23.80;99.90;;;;;;5067713;28;20439;-66
2022/01/07 08:45:00;;;;;;;30.45;5.90;;;23.80;99.90;;;;;;5072434;28;20052;-66
2022/01/07 08:47:30;;;;;;;32.80;8.07;;;23.70;99.90;;;;;;5069206;28;20021;-66
2022/01/07 08:50:04;;;;;;;40.40;7.38;;;23.80;99.90;;;;;;5049641;28;20039;-65
2022/01/07 08:52:32;;;;;;;31.77;6.28;;;23.70;99.90;;;;;;5043903;28;20041;-66
2022/01/07 08:54:59;;;;;;;30.13;6.30;;;23.70;99.90;;;;;;5058193;28;20876;-65
2022/01/07 08:57:26;;;;;;;31.02;7.38;;;23.70;99.90;;;;;;5074436;28;20064;-65
2022/01/07 08:59:54;;;;;;;31.73;6.15;;;23.70;99.90;;;;;;5070687;28;20154;-65
2022/01/07 09:02:25;;;;;;;28.23;5.65;;;23.70;99.90;;;;;;5069139;28;20036;-64
2022/01/07 09:04:53;;;;;;;36.92;6.40;;;23.70;99.90;;;;;;5072810;28;20393;-66
2022/01/07 09:07:20;;;;;;;36.35;5.82;;;23.70;99.90;;;;;;5072280;28;20175;-65
2022/01/07 09:09:50;;;;;;;31.42;5.82;;;23.70;99.90;;;;;;5063125;28;20393;-65
2022/01/07 09:12:17;;;;;;;38.22;8.00;;;23.70;99.90;;;;;;5072521;28;20543;-65
2022/01/07 09:14:46;;;;;;;32.45;6.50;;;23.70;99.90;;;;;;5048928;28;20025;-65
2022/01/07 09:17:14;;;;;;;36.60;6.28;;;23.70;99.90;;;;;;5067754;28;20043;-65
2022/01/07 09:19:41;;;;;;;28.85;6.78;;;23.60;99.90;;;;;;5069779;28;20027;-65
2022/01/07 09:22:08;;;;;;;31.55;6.72;;;23.60;99.90;;;;;;5072545;28;20032;-65
2022/01/07 09:24:35;;;;;;;35.33;7.03;;;23.60;99.90;;;;;;5064549;28;20492;-65
2022/01/07 09:27:11;;;;;;;32.53;6.82;;;23.60;99.90;;;;;;5071999;28;20043;-66
2022/01/07 09:29:38;;;;;;;36.47;6.97;;;23.60;99.90;;;;;;5071156;28;20032;-65
2022/01/07 09:32:06;;;;;;;35.15;6.20;;;23.60;99.90;;;;;;5061609;28;20094;-65
2022/01/07 09:34:35;;;;;;;32.70;7.00;;;23.60;99.90;;;;;;5061308;28;20048;-65
2022/01/07 09:37:04;;;;;;;27.42;6.28;;;23.60;99.90;;;;;;5072597;28;20020;-65
2022/01/07 09:39:33;;;;;;;32.13;6.25;;;23.60;99.90;;;;;;5054380;28;20051;-66
2022/01/07 09:42:03;;;;;;;35.33;7.63;;;23.60;99.90;;;;;;5071015;28;20024;-66
2022/01/07 09:44:30;;;;;;;35.15;6.15;;;23.60;99.90;;;;;;5047612;28;20404;-66
2022/01/07 09:46:59;;;;;;;34.17;6.85;;;23.60;99.90;;;;;;5071731;28;20039;-66
2022/01/07 09:49:33;;;;;;;40.25;7.18;;;23.60;99.90;;;;;;5069216;28;20389;-66
2022/01/07 09:52:01;;;;;;;30.20;5.78;;;23.50;99.90;;;;;;5073480;28;20048;-66
2022/01/07 09:54:30;;;;;;;29.48;6.53;;;23.50;99.90;;;;;;5070890;28;20094;-65
2022/01/07 09:56:58;;;;;;;28.40;6.07;;;23.50;99.90;;;;;;5052291;28;20025;-66
2022/01/07 09:59:26;;;;;;;34.60;5.53;;;23.60;99.90;;;;;;5059687;28;20072;-65
2022/01/07 10:02:07;;;;;;;35.30;5.97;;;23.50;99.90;;;;;;5066435;28;20036;-66
2022/01/07 10:04:41;;;;;;;34.03;6.60;;;23.50;99.90;;;;;;5066728;28;20062;-65
2022/01/07 10:07:27;;;;;;;32.70;6.95;;;23.50;99.90;;;;;;5071883;28;20060;-65
2022/01/07 10:10:10;;;;;;;26.70;6.05;;;23.50;99.90;;;;;;5071475;28;20144;-66
2022/01/07 10:13:00;;;;;;;28.13;6.45;;;23.50;99.90;;;;;;5067466;28;20119;-65
2022/01/07 10:15:31;;;;;;;39.45;6.95;;;23.40;99.90;;;;;;5071358;28;20374;-65
2022/01/07 10:17:58;;;;;;;31.33;6.03;;;23.50;99.90;;;;;;5071696;28;20052;-66
2022/01/07 10:20:30;;;;;;;35.15;6.40;;;23.40;99.90;;;;;;5067016;28;20033;-65
2022/01/07 10:23:07;;;;;;;31.60;7.05;;;23.40;99.90;;;;;;5066639;28;20021;-66
2022/01/07 10:25:42;;;;;;;35.42;6.72;;;23.40;99.90;;;;;;5060488;28;20473;-66
2022/01/07 10:28:15;;;;;;;34.33;8.00;;;23.40;99.90;;;;;;5039428;28;20045;-65
2022/01/07 10:30:46;;;;;;;44.10;7.13;;;23.40;99.90;;;;;;5067934;28;20052;-65
2022/01/07 10:33:33;;;;;;;30.73;6.03;;;23.40;99.90;;;;;;5062444;28;20028;-66
2022/01/07 10:36:19;;;;;;;33.35;6.13;;;23.40;99.90;;;;;;5074436;28;20040;-65
2022/01/07 10:38:48;;;;;;;31.58;5.57;;;23.40;99.90;;;;;;5074958;28;20028;-65
2022/01/07 10:41:19;;;;;;;43.72;6.68;;;23.40;99.90;;;;;;5068349;28;20115;-65
2022/01/07 10:43:52;;;;;;;23.15;6.03;;;23.40;99.90;;;;;;5069191;28;20024;-66
2022/01/07 10:46:24;;;;;;;34.92;7.05;;;23.40;99.90;;;;;;5054543;28;20058;-68
2022/01/07 10:48:57;;;;;;;27.65;6.28;;;23.40;99.90;;;;;;5069078;28;20055;-67
2022/01/07 10:51:32;;;;;;;41.97;7.13;;;23.30;99.90;;;;;;5074269;28;20021;-67
2022/01/07 10:54:10;;;;;;;35.95;7.13;;;23.30;99.90;;;;;;5058566;28;20024;-67
2022/01/07 10:56:47;;;;;;;36.83;7.25;;;23.30;99.90;;;;;;5072370;28;20512;-67
2022/01/07 10:59:16;;;;;;;31.60;6.38;;;23.30;99.90;;;;;;5071440;28;20068;-67
2022/01/07 11:01:48;;;;;;;38.42;7.60;;;23.30;99.90;;;;;;5074080;28;20032;-67
2022/01/07 11:04:20;;;;;;;34.95;6.05;;;23.30;99.90;;;;;;5073034;28;20548;-67
2022/01/07 11:06:49;;;;;;;32.78;5.70;;;23.30;99.90;;;;;;5071447;28;20481;-67
2022/01/07 11:09:17;;;;;;;35.13;6.80;;;23.30;99.90;;;;;;5074949;28;20032;-67
2022/01/07 11:11:57;;;;;;;37.90;7.97;;;23.30;99.90;;;;;;5069480;28;20024;-69
2022/01/07 11:14:32;;;;;;;32.97;6.47;;;23.30;99.90;;;;;;5065715;28;20044;-69
2022/01/07 11:17:06;;;;;;;34.03;7.28;;;23.30;99.90;;;;;;5069150;28;20111;-68
2022/01/07 11:19:42;;;;;;;33.00;6.93;;;23.30;99.90;;;;;;5055536;28;20064;-68
2022/01/07 11:22:14;;;;;;;33.33;6.68;;;23.30;99.90;;;;;;5072639;28;20036;-68
2022/01/07 11:24:54;;;;;;;40.28;7.10;;;23.30;99.90;;;;;;5069851;28;20060;-68
2022/01/07 11:27:26;;;;;;;38.72;7.22;;;23.30;99.90;;;;;;5062922;28;20393;-69
2022/01/07 11:30:10;;;;;;;37.28;6.38;;;23.30;99.90;;;;;;5056449;28;20111;-69
2022/01/07 11:32:50;;;;;;;38.38;7.40;;;23.30;99.90;;;;;;5073297;28;20107;-68
2022/01/07 11:35:20;;;;;;;35.22;6.38;;;23.30;99.90;;;;;;5039811;28;20032;-68
2022/01/07 11:38:00;;;;;;;34.03;6.68;;;23.20;99.90;;;;;;5062680;28;20016;-68
2022/01/07 11:40:47;;;;;;;31.25;7.45;;;23.30;99.90;;;;;;5071665;28;20020;-69
2022/01/07 11:43:21;;;;;;;34.05;6.47;;;23.30;99.90;;;;;;5061905;28;20155;-69
2022/01/07 11:45:49;;;;;;;33.70;6.75;;;23.30;99.90;;;;;;5073052;28;20389;-66
2022/01/07 11:48:27;;;;;;;32.80;7.32;;;23.30;99.90;;;;;;5072028;28;20036;-67
2022/01/07 11:51:00;;;;;;;29.17;7.25;;;23.30;99.90;;;;;;5074402;28;20107;-68
2022/01/07 11:53:36;;;;;;;25.13;6.07;;;23.30;99.90;;;;;;5044755;28;20033;-68
2022/01/07 11:56:05;;;;;;;26.63;6.40;;;23.30;99.90;;;;;;5069424;28;20381;-68
2022/01/07 11:58:57;;;;;;;37.83;6.68;;;23.30;99.90;;;;;;5073309;28;20035;-67
2022/01/07 12:01:35;;;;;;;29.35;6.13;;;23.30;99.90;;;;;;5063420;28;20113;-67
2022/01/07 12:04:29;;;;;;;27.30;5.93;;;23.20;99.90;;;;;;5072954;28;20032;-68
2022/01/07 12:06:59;;;;;;;28.48;6.38;;;23.20;99.90;;;;;;5067016;28;20052;-67
2022/01/07 12:09:36;;;;;;;34.88;6.43;;;23.20;99.90;;;;;;5072565;28;20032;-68
2022/01/07 12:12:12;;;;;;;32.78;7.10;;;23.20;99.90;;;;;;5052416;28;20043;-68
2022/01/07 12:14:49;;;;;;;34.10;7.53;;;23.20;99.90;;;;;;5071598;28;20051;-68
2022/01/07 12:17:18;;;;;;;29.02;5.80;;;23.30;99.90;;;;;;5062145;28;20489;-68
2022/01/07 12:19:49;;;;;;;29.33;5.70;;;23.30;99.90;;;;;;5066704;28;20017;-68
2022/01/07 12:22:17;;;;;;;28.55;6.28;;;23.30;99.90;;;;;;5072347;28;20377;-68
2022/01/07 12:24:46;;;;;;;31.23;7.05;;;23.30;99.90;;;;;;5062077;28;20017;-68
2022/01/07 12:27:23;;;;;;;36.35;7.57;;;23.30;99.90;;;;;;5072097;28;20440;-68
2022/01/07 12:29:53;;;;;;;31.48;6.57;;;23.30;99.90;;;;;;5053279;28;20051;-68
2022/01/07 12:32:21;;;;;;;27.80;5.53;;;23.30;99.90;;;;;;5067266;28;20071;-68
2022/01/07 12:34:52;;;;;;;26.83;6.47;;;23.30;99.90;;;;;;5060439;28;20037;-68
2022/01/07 12:37:26;;;;;;;25.35;7.05;;;23.20;99.90;;;;;;5071132;28;20040;-67
2022/01/07 12:39:58;;;;;;;27.55;5.90;;;23.30;99.90;;;;;;5069812;28;20451;-68
2022/01/07 12:42:28;;;;;;;30.88;6.97;;;23.20;99.90;;;;;;5072974;28;20062;-68
2022/01/07 12:44:57;;;;;;;30.95;6.28;;;23.20;99.90;;;;;;5064766;28;20025;-68
2022/01/07 12:47:30;;;;;;;29.73;6.80;;;23.30;99.90;;;;;;5072729;28;20055;-68
2022/01/07 12:50:05;;;;;;;33.78;6.85;;;23.30;99.90;;;;;;5061931;28;20040;-68
2022/01/07 12:52:43;;;;;;;35.85;7.43;;;23.20;99.90;;;;;;5072837;28;20116;-68
2022/01/07 12:55:22;;;;;;;31.20;6.32;;;23.30;99.90;;;;;;5072202;28;20033;-68